Time;durP1;ratioP1;P1;durP2;ratioP2;P2;SDS_P1;SDS_P2;PMS_P1;PMS_P2;Temp;Humidity;BMP_temperature;BMP_pressure;BME280_temperature;BME280_humidity;BME280_pressure;Samples;Min_cycle;Max_cycle;Signal;HPM_P1;HPM_P2
2024/03/04 00:02:09;;;;;;;9.57;5.87;;;13.70;69.70;;;;;;2339716;54;20960;-65
2024/03/04 00:04:38;;;;;;;10.02;7.03;;;13.70;69.70;;;;;;2326571;54;20938;-68
2024/03/04 00:07:05;;;;;;;10.63;6.50;;;13.70;69.40;;;;;;2329109;54;21233;-66
2024/03/04 00:09:31;;;;;;;11.20;6.30;;;13.70;69.50;;;;;;2340307;54;20980;-66
2024/03/04 00:11:57;;;;;;;11.40;6.40;;;13.70;69.50;;;;;;2339648;54;20984;-66
2024/03/04 00:14:24;;;;;;;11.45;6.80;;;13.70;69.40;;;;;;2339819;54;20958;-65
2024/03/04 00:16:50;;;;;;;9.88;6.62;;;13.60;69.20;;;;;;2585908;53;21709;-67
2024/03/04 00:19:18;;;;;;;9.90;6.35;;;13.60;69.10;;;;;;2339704;55;20992;-65
2024/03/04 00:21:45;;;;;;;10.55;6.07;;;13.60;69.10;;;;;;2340506;54;21322;-67
2024/03/04 00:24:11;;;;;;;10.50;6.47;;;13.60;69.20;;;;;;2339869;54;21044;-65
2024/03/04 00:26:37;;;;;;;11.15;5.53;;;13.60;69.20;;;;;;2339610;54;21398;-66
2024/03/04 00:29:06;;;;;;;9.32;5.25;;;13.60;69.20;;;;;;2339684;54;21390;-65
2024/03/04 00:31:32;;;;;;;7.93;4.75;;;13.60;69.10;;;;;;2340277;54;20949;-66
2024/03/04 00:33:59;;;;;;;7.72;4.32;;;13.60;69.10;;;;;;2586084;53;21811;-67
2024/03/04 00:36:26;;;;;;;8.02;4.72;;;13.60;69.00;;;;;;2586036;53;21447;-67
2024/03/04 00:38:57;;;;;;;6.25;3.80;;;13.60;69.00;;;;;;2339866;54;21053;-67
2024/03/04 00:41:24;;;;;;;6.47;3.85;;;13.60;69.00;;;;;;2317021;55;21550;-67
2024/03/04 00:43:51;;;;;;;5.68;3.60;;;13.50;69.60;;;;;;2317395;54;21040;-66
2024/03/04 00:46:17;;;;;;;5.82;3.67;;;13.50;69.00;;;;;;2339719;54;20961;-67
2024/03/04 00:48:44;;;;;;;6.05;4.03;;;13.50;69.10;;;;;;2326514;54;20954;-66
2024/03/04 00:51:14;;;;;;;5.22;3.17;;;13.50;69.00;;;;;;2330097;54;21032;-67
2024/03/04 00:53:40;;;;;;;5.65;3.62;;;13.50;69.00;;;;;;2316902;54;20939;-66
2024/03/04 00:56:07;;;;;;;5.22;3.45;;;13.50;69.00;;;;;;2340066;54;21847;-67
2024/03/04 00:58:34;;;;;;;8.00;3.97;;;13.50;69.00;;;;;;2340418;54;21289;-66
2024/03/04 01:01:01;;;;;;;5.47;3.37;;;13.50;68.90;;;;;;2340185;54;21027;-66
2024/03/04 01:03:27;;;;;;;5.32;3.33;;;13.50;68.90;;;;;;2339922;54;20960;-66
2024/03/04 01:05:54;;;;;;;5.05;3.12;;;13.50;68.90;;;;;;2339581;54;21771;-65
2024/03/04 01:08:32;;;;;;;4.85;2.78;;;13.50;68.90;;;;;;2324886;54;21750;-66
2024/03/04 01:10:58;;;;;;;5.25;3.03;;;13.50;68.50;;;;;;2336428;54;20997;-66
2024/03/04 01:13:24;;;;;;;4.75;2.85;;;13.50;69.00;;;;;;2340421;54;20977;-66
2024/03/04 01:15:52;;;;;;;6.72;2.92;;;13.50;68.90;;;;;;2340549;54;21232;-67
2024/03/04 01:18:20;;;;;;;5.00;3.12;;;13.50;68.80;;;;;;2340087;54;20993;-65
2024/03/04 01:20:46;;;;;;;4.47;2.97;;;13.40;68.60;;;;;;2586528;53;21506;-68
2024/03/04 01:23:13;;;;;;;5.05;2.53;;;13.40;68.60;;;;;;2339007;54;21036;-65
2024/03/04 01:25:41;;;;;;;4.30;2.60;;;13.40;68.60;;;;;;2586413;53;20960;-66
2024/03/04 01:28:08;;;;;;;4.47;2.70;;;13.40;68.70;;;;;;2338531;54;21050;-65
2024/03/04 01:30:35;;;;;;;4.32;2.80;;;13.40;68.70;;;;;;2586639;53;21012;-65
2024/03/04 01:33:06;;;;;;;4.57;2.40;;;13.40;68.60;;;;;;2340493;54;20948;-66
2024/03/04 01:35:34;;;;;;;4.35;3.00;;;13.40;68.50;;;;;;2337875;54;20985;-66
2024/03/04 01:38:00;;;;;;;4.18;2.70;;;13.30;68.40;;;;;;2339559;54;21020;-66
2024/03/04 01:40:28;;;;;;;3.90;2.50;;;13.30;68.40;;;;;;2339239;54;20936;-67
2024/03/04 01:42:56;;;;;;;3.95;2.20;;;13.30;68.50;;;;;;2551826;53;20997;-66
2024/03/04 01:45:26;;;;;;;4.47;2.50;;;13.30;68.50;;;;;;2318475;54;21453;-65
2024/03/04 01:48:13;;;;;;;4.28;2.58;;;13.30;68.60;;;;;;2318825;54;20961;-66
2024/03/04 01:50:43;;;;;;;5.25;2.70;;;13.30;68.00;;;;;;2339725;54;20951;-64
2024/03/04 01:53:09;;;;;;;3.92;2.40;;;13.30;68.70;;;;;;2338779;54;21005;-67
2024/03/04 01:55:38;;;;;;;4.15;2.45;;;13.20;68.50;;;;;;2585421;53;20956;-68
2024/03/04 01:58:05;;;;;;;4.10;2.65;;;13.30;68.70;;;;;;2343127;54;21331;-67
2024/03/04 02:00:32;;;;;;;3.70;2.25;;;13.30;68.70;;;;;;2313535;54;21064;-66
2024/03/04 02:02:59;;;;;;;5.32;2.83;;;13.20;68.50;;;;;;2314178;54;20956;-67
2024/03/04 02:05:25;;;;;;;4.82;2.95;;;13.20;68.50;;;;;;2339937;54;21410;-65
2024/03/04 02:07:51;;;;;;;4.82;3.03;;;13.20;68.40;;;;;;2586175;53;21413;-67
2024/03/04 02:10:21;;;;;;;4.40;2.70;;;13.20;68.40;;;;;;2339476;54;20992;-65
2024/03/04 02:12:48;;;;;;;5.28;2.50;;;13.10;68.20;;;;;;2340151;54;20988;-66
2024/03/04 02:15:14;;;;;;;4.87;3.15;;;13.10;68.40;;;;;;2339105;54;21119;-66
2024/03/04 02:17:41;;;;;;;4.35;2.90;;;13.10;68.40;;;;;;2586641;53;20988;-66
2024/03/04 02:20:10;;;;;;;4.65;3.30;;;13.10;68.30;;;;;;2339603;54;20971;-66
2024/03/04 02:22:38;;;;;;;4.70;2.87;;;13.10;68.10;;;;;;2586510;53;21007;-65
2024/03/04 02:25:05;;;;;;;4.00;2.65;;;13.10;68.30;;;;;;2586101;53;20989;-67
2024/03/04 02:27:32;;;;;;;5.00;3.10;;;13.10;68.40;;;;;;2586470;53;21549;-65
2024/03/04 02:29:58;;;;;;;4.37;2.85;;;13.00;68.30;;;;;;2339865;54;21473;-66
2024/03/04 02:32:25;;;;;;;4.53;3.05;;;13.00;68.40;;;;;;2585467;53;20993;-67
2024/03/04 02:34:51;;;;;;;4.28;2.72;;;13.10;68.50;;;;;;2340128;54;20933;-67
2024/03/04 02:37:19;;;;;;;5.07;3.00;;;13.00;68.40;;;;;;2585480;53;20940;-67
2024/03/04 02:39:46;;;;;;;4.80;2.80;;;13.00;68.30;;;;;;2586624;53;20941;-65
2024/03/04 02:42:12;;;;;;;5.18;3.37;;;13.00;68.30;;;;;;2339364;54;20936;-67
2024/03/04 02:44:41;;;;;;;3.90;2.72;;;13.00;68.30;;;;;;2340439;54;20955;-66
2024/03/04 02:47:08;;;;;;;4.50;2.80;;;13.00;68.30;;;;;;2321799;55;21702;-67
2024/03/04 02:49:35;;;;;;;4.68;2.67;;;12.90;68.30;;;;;;2578514;53;21040;-67
2024/03/04 02:52:02;;;;;;;4.57;2.90;;;12.90;68.20;;;;;;2339592;54;20961;-65
2024/03/04 02:54:29;;;;;;;4.78;2.95;;;12.90;68.30;;;;;;2340158;54;21016;-66
2024/03/04 02:56:56;;;;;;;4.70;2.95;;;12.90;68.30;;;;;;2586172;53;20933;-66
2024/03/04 02:59:23;;;;;;;4.53;2.87;;;12.90;68.30;;;;;;2339831;54;20964;-67
2024/03/04 03:01:50;;;;;;;5.70;3.20;;;12.90;68.20;;;;;;2339904;54;21024;-66
2024/03/04 03:04:16;;;;;;;4.60;3.28;;;12.90;68.20;;;;;;2339731;54;20945;-66
2024/03/04 03:06:43;;;;;;;4.85;3.10;;;12.90;68.20;;;;;;2340140;54;21454;-68
2024/03/04 03:09:10;;;;;;;4.10;2.70;;;12.80;68.10;;;;;;2340016;54;21043;-66
2024/03/04 03:11:36;;;;;;;4.82;3.20;;;12.80;68.00;;;;;;2586177;53;21000;-65
2024/03/04 03:14:03;;;;;;;4.00;2.78;;;12.80;68.00;;;;;;2340195;54;20936;-65
2024/03/04 03:16:30;;;;;;;4.93;3.00;;;12.80;68.70;;;;;;2340274;54;20985;-66
2024/03/04 03:18:56;;;;;;;4.82;2.92;;;12.80;68.00;;;;;;2586646;53;20988;-68
2024/03/04 03:21:24;;;;;;;4.95;2.40;;;12.80;68.10;;;;;;2585286;53;20953;-67
2024/03/04 03:23:50;;;;;;;4.80;2.75;;;12.70;68.10;;;;;;2340098;54;21545;-65
2024/03/04 03:26:17;;;;;;;4.75;3.05;;;12.70;68.20;;;;;;2585817;53;20957;-67
2024/03/04 03:28:46;;;;;;;4.90;3.37;;;12.70;68.20;;;;;;2340464;54;21335;-67
2024/03/04 03:31:12;;;;;;;3.53;2.25;;;12.70;68.20;;;;;;2339474;54;21323;-65
2024/03/04 03:33:39;;;;;;;4.53;2.72;;;12.70;68.20;;;;;;2340986;54;20906;-66
2024/03/04 03:36:08;;;;;;;4.53;2.92;;;12.70;68.20;;;;;;2584823;53;21079;-66
2024/03/04 03:38:34;;;;;;;4.10;2.80;;;12.70;68.10;;;;;;2339578;54;21454;-67
2024/03/04 03:41:01;;;;;;;4.28;2.80;;;12.70;68.20;;;;;;2340426;54;20953;-67
2024/03/04 03:43:27;;;;;;;4.37;2.80;;;12.70;68.20;;;;;;2339630;54;21280;-66
2024/03/04 03:45:54;;;;;;;3.87;2.42;;;12.70;68.20;;;;;;2340241;54;20969;-66
2024/03/04 03:48:20;;;;;;;4.97;3.05;;;12.70;68.20;;;;;;2340002;54;21012;-64
2024/03/04 03:50:47;;;;;;;4.20;2.60;;;12.60;68.10;;;;;;2585280;53;21549;-67
2024/03/04 03:53:13;;;;;;;5.12;2.92;;;12.70;68.20;;;;;;2339389;54;20973;-64
2024/03/04 03:55:43;;;;;;;5.10;3.28;;;12.70;68.20;;;;;;2340371;54;20941;-65
2024/03/04 03:58:10;;;;;;;5.22;3.00;;;12.60;68.10;;;;;;2339918;54;21256;-67
2024/03/04 04:00:38;;;;;;;4.20;2.40;;;12.60;68.10;;;;;;2339925;54;21000;-65
2024/03/04 04:03:04;;;;;;;5.28;2.58;;;12.60;68.10;;;;;;2340092;54;20941;-66
2024/03/04 04:05:31;;;;;;;5.62;3.22;;;12.60;68.20;;;;;;2339865;54;21421;-66
2024/03/04 04:07:58;;;;;;;6.30;3.47;;;12.60;68.10;;;;;;2339717;54;21013;-66
2024/03/04 04:10:24;;;;;;;4.95;2.90;;;12.60;68.00;;;;;;2584436;53;20949;-65
2024/03/04 04:12:51;;;;;;;5.32;3.03;;;12.60;68.00;;;;;;2340117;54;20953;-66
2024/03/04 04:15:18;;;;;;;4.87;3.05;;;12.60;68.00;;;;;;2585515;53;20952;-65
2024/03/04 04:17:45;;;;;;;5.68;2.97;;;12.60;68.00;;;;;;2340299;54;21312;-66
2024/03/04 04:20:12;;;;;;;5.07;3.00;;;12.60;68.00;;;;;;2585067;53;20972;-67
2024/03/04 04:22:41;;;;;;;4.35;2.70;;;12.60;68.00;;;;;;2339911;54;20972;-66
2024/03/04 04:25:09;;;;;;;4.10;2.70;;;12.50;68.00;;;;;;2338794;54;21444;-66
2024/03/04 04:27:35;;;;;;;4.75;2.90;;;12.50;68.10;;;;;;2317594;54;21268;-67
2024/03/04 04:30:01;;;;;;;5.18;3.10;;;12.50;68.20;;;;;;2340958;54;21738;-67
2024/03/04 04:32:29;;;;;;;4.25;2.60;;;12.50;68.10;;;;;;2339826;54;21512;-66
2024/03/04 04:34:55;;;;;;;4.25;2.85;;;12.50;68.10;;;;;;2339138;54;21283;-65
2024/03/04 04:37:22;;;;;;;4.37;2.70;;;12.60;68.30;;;;;;2338866;54;21037;-67
2024/03/04 04:39:49;;;;;;;4.80;2.90;;;12.50;68.20;;;;;;2339363;54;20960;-65
2024/03/04 04:42:15;;;;;;;4.97;3.22;;;12.50;68.20;;;;;;2339315;54;21012;-66
2024/03/04 04:44:43;;;;;;;5.62;3.33;;;12.50;68.10;;;;;;2342984;54;21332;-66
2024/03/04 04:47:09;;;;;;;4.57;3.28;;;12.50;68.10;;;;;;2339406;54;20944;-66
2024/03/04 04:49:35;;;;;;;5.57;3.20;;;12.50;68.10;;;;;;2339849;54;21541;-65
2024/03/04 04:52:02;;;;;;;5.93;3.65;;;12.50;68.00;;;;;;2340384;54;21177;-66
2024/03/04 04:54:29;;;;;;;6.30;3.45;;;12.50;68.10;;;;;;2585274;53;20952;-67
2024/03/04 04:56:55;;;;;;;5.45;3.50;;;12.50;68.10;;;;;;2586126;53;21009;-65
2024/03/04 04:59:21;;;;;;;6.05;3.90;;;12.50;68.10;;;;;;2585778;53;21304;-67
2024/03/04 05:01:48;;;;;;;6.35;4.40;;;12.50;68.10;;;;;;2586375;53;20929;-65
2024/03/04 05:04:14;;;;;;;9.80;8.15;;;12.50;68.10;;;;;;2586134;53;20952;-68
2024/03/04 05:06:42;;;;;;;8.40;7.12;;;12.50;68.10;;;;;;2308428;54;20928;-65
2024/03/04 05:09:09;;;;;;;8.65;5.90;;;12.50;68.10;;;;;;2307211;54;20971;-67
2024/03/04 05:11:35;;;;;;;7.00;5.22;;;12.50;68.10;;;;;;2309386;54;21494;-65
2024/03/04 05:14:02;;;;;;;5.05;3.75;;;12.50;68.20;;;;;;2308481;54;20994;-68
2024/03/04 05:16:29;;;;;;;5.72;3.78;;;12.50;68.20;;;;;;2307631;54;21027;-67
2024/03/04 05:18:56;;;;;;;6.00;3.42;;;12.50;68.10;;;;;;2547157;54;21047;-65
2024/03/04 05:21:22;;;;;;;7.28;3.58;;;12.50;68.10;;;;;;2307432;54;20951;-67
2024/03/04 05:23:49;;;;;;;5.45;3.60;;;12.40;67.90;;;;;;2307886;54;21519;-66
2024/03/04 05:26:15;;;;;;;6.20;3.17;;;12.40;67.90;;;;;;2546600;54;20944;-66
2024/03/04 05:28:41;;;;;;;7.15;3.25;;;12.40;67.90;;;;;;2307921;54;21612;-66
2024/03/04 05:31:08;;;;;;;7.72;3.53;;;12.50;68.10;;;;;;2308045;54;20951;-66
2024/03/04 05:33:36;;;;;;;5.78;3.53;;;12.40;68.10;;;;;;2546562;54;21299;-65
2024/03/04 05:36:08;;;;;;;5.22;3.25;;;12.40;68.10;;;;;;2308078;54;20963;-66
2024/03/04 05:38:34;;;;;;;5.22;3.28;;;12.40;68.10;;;;;;2308035;54;20951;-65
2024/03/04 05:41:00;;;;;;;7.32;4.65;;;12.40;68.10;;;;;;2546314;54;21843;-64
2024/03/04 05:43:27;;;;;;;7.80;4.82;;;12.40;68.20;;;;;;2307152;54;20952;-67
2024/03/04 05:45:53;;;;;;;8.10;4.65;;;12.40;68.20;;;;;;2546627;54;20951;-65
2024/03/04 05:48:20;;;;;;;7.28;4.75;;;12.40;68.20;;;;;;2307160;54;20967;-66
2024/03/04 05:50:46;;;;;;;7.90;4.53;;;12.40;68.20;;;;;;2308178;54;20960;-68
2024/03/04 05:53:12;;;;;;;6.90;3.87;;;12.40;68.20;;;;;;2307780;54;21464;-67
2024/03/04 05:55:38;;;;;;;6.32;3.95;;;12.30;68.10;;;;;;2307823;54;20983;-65
2024/03/04 05:58:05;;;;;;;5.45;3.33;;;12.30;68.10;;;;;;2307951;54;20996;-67
2024/03/04 06:00:32;;;;;;;5.60;3.10;;;12.40;68.20;;;;;;2307496;54;20955;-67
2024/03/04 06:02:58;;;;;;;6.75;4.43;;;12.30;68.20;;;;;;2307553;54;21488;-66
2024/03/04 06:05:24;;;;;;;5.62;3.67;;;12.30;68.20;;;;;;2307469;54;21191;-66
2024/03/04 06:07:56;;;;;;;6.53;4.20;;;12.30;68.10;;;;;;2307933;54;21010;-65
2024/03/04 06:10:25;;;;;;;5.90;3.70;;;12.30;68.20;;;;;;2307489;54;20951;-66
2024/03/04 06:12:51;;;;;;;5.07;3.17;;;12.30;68.20;;;;;;2308020;54;20967;-66
2024/03/04 06:15:17;;;;;;;5.93;3.28;;;12.30;68.30;;;;;;2307720;54;21472;-67
2024/03/04 06:17:44;;;;;;;5.93;3.28;;;12.30;68.40;;;;;;2546716;54;21755;-65
2024/03/04 06:20:13;;;;;;;6.47;3.22;;;12.30;68.40;;;;;;2546863;54;20947;-66
2024/03/04 06:22:39;;;;;;;6.37;3.92;;;12.30;68.30;;;;;;2546422;54;21833;-66
2024/03/04 06:25:07;;;;;;;5.35;3.60;;;12.30;68.40;;;;;;2307663;54;21019;-67
2024/03/04 06:27:36;;;;;;;5.30;3.40;;;12.20;68.20;;;;;;2546560;54;21571;-67
2024/03/04 06:30:08;;;;;;;6.45;3.90;;;12.20;68.20;;;;;;2307754;54;20999;-66
2024/03/04 06:32:34;;;;;;;7.32;4.22;;;12.20;68.30;;;;;;2309116;54;20944;-67
2024/03/04 06:35:04;;;;;;;7.32;3.70;;;12.20;68.30;;;;;;2308553;54;21810;-67
2024/03/04 06:37:32;;;;;;;5.97;3.45;;;12.20;68.40;;;;;;2307378;54;20936;-66
2024/03/04 06:39:58;;;;;;;5.95;3.67;;;12.20;68.40;;;;;;2308031;54;21039;-65
2024/03/04 06:42:24;;;;;;;6.35;3.95;;;12.20;68.40;;;;;;2546241;54;20979;-66
2024/03/04 06:44:51;;;;;;;6.90;4.12;;;12.20;68.50;;;;;;2546940;54;20968;-67
2024/03/04 06:47:19;;;;;;;8.88;4.30;;;12.20;68.50;;;;;;2307839;54;21015;-66
2024/03/04 06:49:48;;;;;;;6.43;3.92;;;12.20;68.50;;;;;;2546088;54;21259;-65
2024/03/04 06:52:14;;;;;;;6.53;3.85;;;12.20;68.60;;;;;;2547145;54;20993;-65
2024/03/04 06:54:41;;;;;;;5.78;3.78;;;12.20;68.60;;;;;;2546520;54;21267;-67
2024/03/04 06:57:10;;;;;;;5.85;3.95;;;12.10;68.40;;;;;;2307733;54;20983;-67
2024/03/04 06:59:36;;;;;;;6.05;3.80;;;12.10;68.50;;;;;;2309260;54;21022;-67
2024/03/04 07:02:03;;;;;;;6.30;3.72;;;12.10;68.60;;;;;;2282498;55;21048;-67
2024/03/04 07:04:29;;;;;;;6.62;3.85;;;12.10;68.60;;;;;;2546351;54;21047;-66
2024/03/04 07:06:56;;;;;;;5.78;3.12;;;12.10;68.60;;;;;;2546873;54;20969;-68
2024/03/04 07:09:25;;;;;;;7.55;3.67;;;12.10;68.60;;;;;;2307298;55;21027;-65
2024/03/04 07:11:51;;;;;;;5.60;3.37;;;12.10;68.60;;;;;;2545365;54;20968;-65
2024/03/04 07:14:18;;;;;;;6.47;3.75;;;12.10;68.70;;;;;;2306535;55;20980;-65
2024/03/04 07:16:44;;;;;;;5.68;3.65;;;12.10;68.70;;;;;;2307152;55;20961;-66
2024/03/04 07:19:10;;;;;;;6.10;3.60;;;12.10;68.70;;;;;;2307438;54;21331;-66
2024/03/04 07:21:38;;;;;;;7.40;4.43;;;12.10;68.70;;;;;;2545695;54;20992;-66
2024/03/04 07:24:05;;;;;;;6.40;3.85;;;12.10;68.60;;;;;;2547010;53;20995;-67
2024/03/04 07:26:33;;;;;;;7.72;4.07;;;12.10;68.70;;;;;;2308166;54;21489;-65
2024/03/04 07:29:00;;;;;;;5.78;3.33;;;12.10;68.70;;;;;;2308372;54;20979;-65
2024/03/04 07:31:29;;;;;;;8.70;4.03;;;12.10;68.80;;;;;;2546771;54;21533;-66
2024/03/04 07:33:56;;;;;;;6.53;3.87;;;12.10;68.70;;;;;;2547270;54;21856;-65
2024/03/04 07:36:24;;;;;;;7.65;4.40;;;12.00;68.70;;;;;;2578998;53;20960;-65
2024/03/04 07:38:50;;;;;;;6.55;3.53;;;12.00;68.70;;;;;;2329727;54;21895;-66
2024/03/04 07:41:17;;;;;;;5.93;3.90;;;12.00;68.60;;;;;;2585155;53;20985;-65
2024/03/04 07:43:46;;;;;;;7.57;3.62;;;12.00;68.60;;;;;;2339838;54;21036;-66
2024/03/04 07:46:15;;;;;;;6.32;3.75;;;12.00;69.30;;;;;;2339829;54;22148;-66
2024/03/04 07:48:47;;;;;;;7.53;4.03;;;12.00;68.60;;;;;;2325466;54;21026;-65
2024/03/04 07:51:14;;;;;;;6.03;3.65;;;12.00;68.60;;;;;;2575463;53;21435;-66
2024/03/04 07:53:40;;;;;;;6.87;4.35;;;12.00;68.70;;;;;;2339566;54;20969;-66
2024/03/04 07:56:08;;;;;;;7.50;4.22;;;12.00;68.70;;;;;;2586339;53;20988;-65
2024/03/04 07:58:36;;;;;;;8.32;4.97;;;12.00;68.70;;;;;;2339928;54;20968;-67
2024/03/04 08:01:04;;;;;;;6.72;4.28;;;12.00;68.70;;;;;;2340359;54;21403;-64
2024/03/04 08:03:31;;;;;;;8.43;4.40;;;12.00;68.70;;;;;;2340401;54;21023;-66
2024/03/04 08:05:57;;;;;;;7.87;4.65;;;11.90;68.60;;;;;;2339704;54;21024;-67
2024/03/04 08:08:24;;;;;;;6.90;4.25;;;11.90;68.60;;;;;;2339644;54;20981;-66
2024/03/04 08:10:51;;;;;;;6.70;4.03;;;11.90;68.70;;;;;;2339784;54;21565;-67
2024/03/04 08:13:18;;;;;;;6.68;4.15;;;11.90;68.80;;;;;;2340482;54;20948;-66
2024/03/04 08:15:44;;;;;;;6.15;3.42;;;11.90;68.80;;;;;;2339939;54;21020;-66
2024/03/04 08:18:11;;;;;;;6.55;3.97;;;11.90;68.80;;;;;;2339614;54;21353;-67
2024/03/04 08:20:38;;;;;;;5.43;3.30;;;11.90;68.90;;;;;;2340142;54;20953;-67
2024/03/04 08:23:04;;;;;;;5.12;3.30;;;11.90;68.90;;;;;;2339768;54;21020;-66
2024/03/04 08:25:31;;;;;;;6.25;3.92;;;11.90;68.90;;;;;;2585225;53;21452;-67
2024/03/04 08:27:57;;;;;;;8.02;4.43;;;11.90;69.00;;;;;;2339954;54;21004;-67
2024/03/04 08:30:23;;;;;;;6.90;4.30;;;11.90;68.90;;;;;;2339983;54;21257;-65
2024/03/04 08:32:53;;;;;;;5.72;3.67;;;11.90;69.00;;;;;;2585668;53;20973;-66
2024/03/04 08:35:19;;;;;;;6.93;4.35;;;11.90;69.00;;;;;;2585488;53;20972;-65
2024/03/04 08:37:45;;;;;;;6.82;3.87;;;11.90;69.10;;;;;;2556831;53;20966;-67
2024/03/04 08:40:12;;;;;;;6.25;4.28;;;11.90;69.10;;;;;;2582050;53;21387;-66
2024/03/04 08:42:41;;;;;;;6.32;4.32;;;11.90;69.10;;;;;;2581935;53;21246;-66
2024/03/04 08:45:08;;;;;;;9.95;5.53;;;11.90;69.10;;;;;;2316970;55;20936;-67
2024/03/04 08:47:34;;;;;;;6.80;4.37;;;11.90;69.00;;;;;;2555048;53;20944;-66
2024/03/04 08:50:00;;;;;;;9.07;4.97;;;11.90;69.00;;;;;;2585950;53;20961;-67
2024/03/04 08:52:27;;;;;;;8.10;4.90;;;11.90;68.90;;;;;;2586284;53;21422;-66
2024/03/04 08:54:54;;;;;;;6.95;4.47;;;11.90;69.00;;;;;;2339876;54;20996;-65
2024/03/04 08:57:21;;;;;;;6.97;4.50;;;11.90;69.10;;;;;;2340020;54;21799;-64
2024/03/04 08:59:47;;;;;;;7.28;4.97;;;12.00;69.20;;;;;;2340104;54;21730;-67
2024/03/04 09:02:14;;;;;;;6.70;4.30;;;11.90;69.10;;;;;;2339710;54;21064;-66
2024/03/04 09:04:40;;;;;;;7.85;4.65;;;12.00;69.20;;;;;;2339903;54;21033;-66
2024/03/04 09:07:09;;;;;;;7.70;4.75;;;12.00;69.10;;;;;;2339847;54;21040;-66
2024/03/04 09:09:38;;;;;;;6.12;3.97;;;12.00;69.10;;;;;;2585806;53;20957;-66
2024/03/04 09:12:04;;;;;;;6.32;4.15;;;12.00;69.10;;;;;;2340013;54;20957;-65
2024/03/04 09:14:31;;;;;;;6.25;4.00;;;12.00;69.20;;;;;;2586283;53;21232;-67
2024/03/04 09:16:58;;;;;;;6.43;4.18;;;12.00;69.20;;;;;;2340107;54;20933;-65
2024/03/04 09:19:26;;;;;;;6.97;4.53;;;12.00;69.30;;;;;;2340060;54;20965;-66
2024/03/04 09:21:54;;;;;;;5.72;3.72;;;12.00;69.40;;;;;;2340376;54;20944;-65
2024/03/04 09:24:21;;;;;;;7.03;4.57;;;12.10;69.50;;;;;;2339545;54;21551;-66
2024/03/04 09:26:48;;;;;;;7.93;4.87;;;12.00;69.40;;;;;;2339508;54;21692;-66
2024/03/04 09:29:14;;;;;;;6.80;4.70;;;12.00;69.40;;;;;;2339458;54;20965;-66
2024/03/04 09:31:42;;;;;;;6.12;4.07;;;12.10;69.60;;;;;;2339953;54;21040;-67
2024/03/04 09:34:08;;;;;;;7.22;4.65;;;12.10;69.60;;;;;;2585874;53;21475;-67
2024/03/04 09:36:34;;;;;;;6.45;4.00;;;12.10;69.70;;;;;;2586233;53;21028;-67
2024/03/04 09:39:04;;;;;;;6.87;3.87;;;12.10;69.80;;;;;;2339578;54;20957;-66
2024/03/04 09:41:31;;;;;;;5.55;3.47;;;12.20;69.90;;;;;;2308328;54;21536;-66
2024/03/04 09:43:57;;;;;;;6.25;4.05;;;12.20;69.90;;;;;;2307665;54;21011;-67
2024/03/04 09:46:23;;;;;;;6.85;4.30;;;12.20;69.90;;;;;;2307674;55;20947;-67
2024/03/04 09:48:50;;;;;;;7.75;4.40;;;12.20;69.80;;;;;;2307598;55;20972;-66
2024/03/04 09:51:16;;;;;;;9.88;5.37;;;12.20;69.90;;;;;;2307846;55;20967;-66
2024/03/04 09:53:43;;;;;;;7.30;4.20;;;12.30;70.00;;;;;;2308099;55;20999;-66
2024/03/04 09:56:09;;;;;;;7.55;4.80;;;12.30;69.90;;;;;;2307574;55;20947;-65
2024/03/04 09:58:35;;;;;;;7.60;4.47;;;12.40;70.70;;;;;;2308150;54;21012;-66
2024/03/04 10:01:02;;;;;;;6.75;3.92;;;12.40;69.80;;;;;;2307775;56;20947;-66
2024/03/04 10:03:29;;;;;;;7.57;4.25;;;12.40;69.80;;;;;;2551235;53;20956;-66
2024/03/04 10:05:56;;;;;;;6.15;3.50;;;12.40;69.60;;;;;;2546482;54;20991;-66
2024/03/04 10:08:25;;;;;;;5.40;3.20;;;12.40;69.60;;;;;;2307861;55;21192;-66
2024/03/04 10:10:53;;;;;;;5.55;3.30;;;12.50;69.60;;;;;;2546290;54;21024;-66
2024/03/04 10:13:20;;;;;;;6.03;3.30;;;12.50;69.70;;;;;;2546721;54;20944;-66
2024/03/04 10:15:47;;;;;;;5.28;3.08;;;12.50;69.70;;;;;;2307415;55;21039;-67
2024/03/04 10:18:16;;;;;;;7.22;2.60;;;12.50;69.60;;;;;;2546740;54;21289;-67
2024/03/04 10:20:43;;;;;;;6.40;3.53;;;12.60;69.70;;;;;;2308234;55;20956;-65
2024/03/04 10:23:09;;;;;;;5.75;3.00;;;12.60;69.70;;;;;;2307170;55;21016;-65
2024/03/04 10:25:36;;;;;;;6.03;2.97;;;12.70;69.70;;;;;;2510625;54;21499;-66
2024/03/04 10:28:05;;;;;;;7.43;4.35;;;12.70;69.70;;;;;;2546726;54;20974;-66
2024/03/04 10:30:32;;;;;;;6.22;3.70;;;12.70;69.60;;;;;;2546196;54;21043;-66
2024/03/04 10:33:00;;;;;;;8.13;4.30;;;12.70;69.40;;;;;;2307049;54;21002;-67
2024/03/04 10:35:27;;;;;;;6.60;3.75;;;12.70;69.20;;;;;;2306587;55;21787;-66
2024/03/04 10:38:02;;;;;;;7.82;4.40;;;12.70;69.10;;;;;;2544367;54;20956;-66
2024/03/04 10:40:30;;;;;;;6.78;4.15;;;12.70;68.90;;;;;;2305864;55;21082;-65
2024/03/04 10:43:00;;;;;;;6.47;4.55;;;12.70;69.00;;;;;;2306626;55;20932;-67
2024/03/04 10:45:30;;;;;;;8.20;4.57;;;12.70;69.00;;;;;;2306233;55;20952;-67
2024/03/04 10:47:56;;;;;;;8.43;4.72;;;12.70;68.90;;;;;;2545303;54;20979;-68
2024/03/04 10:50:25;;;;;;;7.70;4.20;;;12.70;69.00;;;;;;2306304;55;20971;-67
2024/03/04 10:52:52;;;;;;;6.37;4.05;;;12.70;69.00;;;;;;2306711;55;21860;-67
2024/03/04 10:55:18;;;;;;;7.65;4.60;;;12.80;69.20;;;;;;2306691;55;21830;-65
2024/03/04 10:57:45;;;;;;;8.23;3.95;;;12.70;69.00;;;;;;2306850;55;20932;-66
2024/03/04 11:00:20;;;;;;;9.52;4.65;;;12.70;69.00;;;;;;2306262;55;20926;-66
2024/03/04 11:04:39;;;;;;;6.30;3.75;;;12.70;69.00;;;;;;2306892;55;21023;-67
2024/03/04 11:07:09;;;;;;;6.05;3.35;;;12.70;68.20;;;;;;2585689;53;21300;-65
2024/03/04 11:09:38;;;;;;;7.05;3.87;;;12.70;68.90;;;;;;2586391;53;21009;-66
2024/03/04 11:12:04;;;;;;;7.35;4.28;;;12.70;68.80;;;;;;2339890;54;20961;-66
2024/03/04 11:14:34;;;;;;;7.35;4.25;;;12.70;68.90;;;;;;2340347;54;20949;-67
2024/03/04 11:17:13;;;;;;;9.95;4.35;;;12.70;68.90;;;;;;2339569;54;20937;-66
2024/03/04 11:20:03;;;;;;;7.78;4.28;;;12.70;68.70;;;;;;2586026;53;21478;-68
2024/03/04 11:22:30;;;;;;;8.43;4.30;;;12.70;68.30;;;;;;2586006;53;20941;-66
2024/03/04 11:24:57;;;;;;;7.62;4.12;;;12.70;68.80;;;;;;2339562;54;21173;-66
2024/03/04 11:27:23;;;;;;;6.12;3.20;;;12.70;68.80;;;;;;2574342;53;21006;-66
2024/03/04 11:29:50;;;;;;;8.35;3.90;;;12.70;68.90;;;;;;2565395;53;21807;-66
2024/03/04 11:32:22;;;;;;;7.90;3.62;;;12.80;69.10;;;;;;2585590;53;21544;-67
2024/03/04 11:35:11;;;;;;;8.70;4.32;;;12.70;68.80;;;;;;2585548;53;21057;-66
2024/03/04 11:37:51;;;;;;;7.35;4.12;;;12.70;68.30;;;;;;2340366;54;21016;-67
2024/03/04 11:40:18;;;;;;;6.40;3.62;;;12.70;68.30;;;;;;2585399;53;21300;-66
2024/03/04 11:42:46;;;;;;;8.75;4.10;;;12.70;68.60;;;;;;2586125;53;21305;-67
2024/03/04 11:45:28;;;;;;;7.68;4.00;;;12.80;68.80;;;;;;2339106;54;20933;-67
2024/03/04 11:47:55;;;;;;;10.13;3.45;;;12.70;68.40;;;;;;2340004;54;21020;-67
2024/03/04 11:53:54;;;;;;;7.55;3.62;;;12.70;68.70;;;;;;2339993;54;20937;-66
2024/03/04 11:56:21;;;;;;;9.18;3.62;;;12.80;68.10;;;;;;2586229;53;20940;-66
2024/03/04 11:58:48;;;;;;;7.65;3.55;;;12.80;68.80;;;;;;2340130;54;21228;-65
2024/03/04 12:01:14;;;;;;;5.57;3.35;;;12.80;68.70;;;;;;2569434;53;20946;-67
2024/03/04 12:03:54;;;;;;;7.12;3.08;;;12.80;68.90;;;;;;2570577;53;20944;-66
2024/03/04 12:06:20;;;;;;;10.73;4.20;;;12.80;68.70;;;;;;2585887;53;21045;-67
2024/03/04 12:08:46;;;;;;;8.05;3.85;;;12.80;69.00;;;;;;2340058;54;21462;-68
2024/03/04 12:11:15;;;;;;;7.35;4.07;;;12.80;69.00;;;;;;2339708;54;21503;-65
2024/03/04 12:13:42;;;;;;;7.47;3.83;;;12.80;69.00;;;;;;2340308;54;20949;-65
2024/03/04 12:16:08;;;;;;;9.75;4.62;;;12.90;69.10;;;;;;2339829;54;21016;-67
2024/03/04 12:18:35;;;;;;;10.65;4.97;;;12.80;68.90;;;;;;2340167;54;20945;-66
2024/03/04 12:21:04;;;;;;;9.18;4.80;;;12.90;68.80;;;;;;2584689;53;21001;-67
2024/03/04 12:23:30;;;;;;;11.50;4.32;;;12.90;68.60;;;;;;2586120;53;20941;-66
2024/03/04 12:26:13;;;;;;;6.93;4.03;;;12.90;68.60;;;;;;2340370;54;21044;-66
2024/03/04 12:28:40;;;;;;;8.13;4.05;;;12.90;68.20;;;;;;2340524;54;20968;-65
2024/03/04 12:31:12;;;;;;;7.12;4.18;;;12.90;68.60;;;;;;2339955;54;21246;-67
2024/03/04 12:33:39;;;;;;;9.65;4.05;;;12.90;68.40;;;;;;2340285;54;21056;-67
2024/03/04 12:36:08;;;;;;;7.00;3.62;;;12.90;68.60;;;;;;2340011;54;20957;-64
2024/03/04 12:38:34;;;;;;;9.73;3.90;;;12.90;68.50;;;;;;2586524;53;21741;-67
2024/03/04 12:41:02;;;;;;;8.05;3.75;;;12.90;68.50;;;;;;2339995;54;20965;-66
2024/03/04 12:43:29;;;;;;;8.27;3.65;;;12.90;68.50;;;;;;2586000;53;21688;-65
2024/03/04 12:46:00;;;;;;;8.40;3.55;;;12.90;68.60;;;;;;2586543;53;20918;-65
2024/03/04 12:48:27;;;;;;;8.38;3.25;;;12.90;68.70;;;;;;2340013;54;20993;-65
2024/03/04 12:50:53;;;;;;;14.82;6.90;;;12.90;68.80;;;;;;2340257;54;21605;-67
2024/03/04 12:53:20;;;;;;;11.73;6.37;;;13.00;68.90;;;;;;2585738;53;21008;-67